createdAt,value
2022-10-01T00:02:08.511Z,91625.00
2022-10-01T00:04:37.124Z,91630.56
2022-10-01T00:07:07.199Z,91632.59
2022-10-01T00:09:33.776Z,91634.03
2022-10-01T00:12:00.381Z,91637.44
2022-10-01T00:14:27.708Z,91634.03
2022-10-01T00:16:54.386Z,91638.91
2022-10-01T00:19:21.768Z,91645.91
2022-10-01T00:21:48.249Z,91652.09
2022-10-01T00:24:14.716Z,91654.13
2022-10-01T00:26:42.517Z,91650.03
2022-10-01T00:29:12.325Z,91645.19
2022-10-01T00:31:39.315Z,91651.50
2022-10-01T00:34:06.537Z,91657.06
2022-10-01T00:36:33.233Z,91662.63
2022-10-01T00:39:02.638Z,91666.75
2022-10-01T00:41:32.442Z,91665.28
2022-10-01T00:44:02.017Z,91669.41
2022-10-01T00:46:45.668Z,91670.84
2022-10-01T00:49:33.524Z,91672.31
2022-10-01T00:52:04.675Z,91677.16
2022-10-01T00:54:43.251Z,91670.84
2022-10-01T00:57:10.590Z,91670.84
2022-10-01T00:59:37.390Z,91670.09
2022-10-01T01:02:04.044Z,91663.84
2022-10-01T01:04:30.645Z,91662.50
2022-10-01T01:07:00.883Z,91670.84
2022-10-01T01:09:37.347Z,91669.41
2022-10-01T01:12:29.930Z,91670.84
2022-10-01T01:15:20.233Z,91665.28
2022-10-01T01:17:55.617Z,91669.41
2022-10-01T01:20:28.794Z,91669.41
2022-10-01T01:23:12.776Z,91663.84
2022-10-01T01:25:48.098Z,91667.22
2022-10-01T01:28:44.454Z,91666.63
2022-10-01T01:31:16.528Z,91663.09
2022-10-01T01:33:48.037Z,91663.09
2022-10-01T01:36:18.632Z,91660.31
2022-10-01T01:38:52.549Z,91659.56
2022-10-01T01:41:23.334Z,91656.78
2022-10-01T01:43:51.920Z,91651.22
2022-10-01T01:46:20.154Z,91656.78
2022-10-01T01:48:51.133Z,91648.44
2022-10-01T01:51:23.836Z,91645.66
2022-10-01T01:53:50.851Z,91639.38
2022-10-01T01:56:17.888Z,91640.09
2022-10-01T01:58:45.789Z,91635.25
2022-10-01T02:01:32.855Z,91630.44
2022-10-01T02:04:00.800Z,91617.81
2022-10-01T02:06:42.826Z,91616.50
2022-10-01T02:09:36.689Z,91617.81
2022-10-01T02:12:16.013Z,91619.16
2022-10-01T02:15:08.806Z,91625.47
2022-10-01T02:18:03.165Z,91621.94
2022-10-01T02:20:36.097Z,91618.44
2022-10-01T02:23:25.587Z,91633.09
2022-10-01T02:25:58.337Z,91633.09
2022-10-01T02:28:25.503Z,91637.91
2022-10-01T02:30:55.031Z,91638.66
2022-10-01T02:33:26.797Z,91637.19
2022-10-01T02:35:55.185Z,91634.38
2022-10-01T02:38:24.359Z,91637.19
2022-10-01T02:40:55.349Z,91637.91
2022-10-01T02:43:32.655Z,91637.19
2022-10-01T02:46:11.561Z,91639.97
2022-10-01T02:48:38.089Z,91628.81
2022-10-01T02:51:15.852Z,91626.03
2022-10-01T02:53:47.238Z,91623.25
2022-10-01T02:56:34.551Z,91623.25
2022-10-01T02:59:01.045Z,91614.19
2022-10-01T03:01:28.032Z,91612.13
2022-10-01T03:03:54.475Z,91609.34
2022-10-01T03:06:20.917Z,91609.34
2022-10-01T03:08:47.348Z,91610.06
2022-10-01T03:11:16.128Z,91620.47
2022-10-01T03:13:43.812Z,91613.47
2022-10-01T03:16:10.497Z,91620.47
2022-10-01T03:18:37.076Z,91619.16
2022-10-01T03:21:03.607Z,91617.69
2022-10-01T03:23:30.052Z,91624.00
2022-10-01T03:25:56.657Z,91627.50
2022-10-01T03:28:23.183Z,91638.66
2022-10-01T03:30:49.645Z,91637.91
2022-10-01T03:33:16.091Z,91644.22
2022-10-01T03:35:42.524Z,91637.91
2022-10-01T03:38:08.992Z,91636.59
2022-10-01T03:40:38.940Z,91633.09
2022-10-01T03:43:05.380Z,91628.25
2022-10-01T03:45:32.189Z,91619.16
2022-10-01T03:47:59.129Z,91621.94
2022-10-01T03:50:25.581Z,91616.38
2022-10-01T03:52:52.041Z,91627.50
2022-10-01T03:55:19.303Z,91626.78
2022-10-01T03:57:45.863Z,91627.50
2022-10-01T04:00:14.048Z,91621.94
2022-10-01T04:02:40.624Z,91616.38
2022-10-01T04:05:07.498Z,91605.97
2022-10-01T04:07:33.958Z,91615.66
2022-10-01T04:10:00.409Z,91610.06
2022-10-01T04:12:26.869Z,91610.81
2022-10-01T04:14:53.305Z,91596.91
2022-10-01T04:17:20.759Z,91595.56
2022-10-01T04:19:47.160Z,91599.69
2022-10-01T04:22:13.654Z,91600.41
2022-10-01T04:24:40.089Z,91603.19
2022-10-01T04:27:06.567Z,91595.56
2022-10-01T04:29:36.783Z,91594.84
2022-10-01T04:32:05.932Z,91588.53
2022-10-01T04:34:50.812Z,91594.09
2022-10-01T04:37:17.261Z,91583.72
2022-10-01T04:39:43.706Z,91588.53
2022-10-01T04:42:10.161Z,91596.91
2022-10-01T04:44:36.642Z,91608.75
2022-10-01T04:47:03.162Z,91622.69
2022-10-01T04:49:30.077Z,91622.69
2022-10-01T04:51:56.537Z,91622.69
2022-10-01T04:54:22.982Z,91637.19
2022-10-01T04:56:49.509Z,91648.44
2022-10-01T04:59:16.253Z,91657.53
2022-10-01T05:01:42.775Z,91656.78
2022-10-01T05:04:09.292Z,91670.00
2022-10-01T05:06:35.774Z,91673.50
2022-10-01T05:09:02.234Z,91673.50
2022-10-01T05:11:28.728Z,91673.50
2022-10-01T05:13:56.060Z,91679.06
2022-10-01T05:16:22.586Z,91672.78
2022-10-01T05:18:49.099Z,91672.06
2022-10-01T05:21:15.812Z,91673.50
2022-10-01T05:23:42.489Z,91673.50
2022-10-01T05:26:09.121Z,91670.00
2022-10-01T05:28:36.123Z,91674.84
2022-10-01T05:31:03.682Z,91677.63
2022-10-01T05:33:31.156Z,91687.41
2022-10-01T05:35:58.253Z,91690.19
2022-10-01T05:38:25.076Z,91688.16
2022-10-01T05:40:51.587Z,91677.63
2022-10-01T05:43:18.723Z,91678.34
2022-10-01T05:45:45.213Z,91673.50
2022-10-01T05:48:12.821Z,91667.94
2022-10-01T05:50:40.710Z,91672.06
2022-10-01T05:53:09.856Z,91667.94
2022-10-01T05:55:36.520Z,91667.22
2022-10-01T05:58:11.205Z,91672.78
2022-10-01T06:00:39.480Z,91666.47
2022-10-01T06:03:07.120Z,91660.19
2022-10-01T06:05:35.749Z,91656.78
2022-10-01T06:08:06.295Z,91665.16
2022-10-01T06:10:33.016Z,91672.06
2022-10-01T06:13:05.382Z,91673.50
2022-10-01T06:15:34.390Z,91672.06
2022-10-01T06:18:08.493Z,91669.41
2022-10-01T06:20:35.588Z,91666.00
2022-10-01T06:23:05.746Z,91682.72
2022-10-01T06:25:33.230Z,91676.41
2022-10-01T06:27:59.800Z,91671.56
2022-10-01T06:30:28.896Z,91673.75
2022-10-01T06:33:05.517Z,91666.75
2022-10-01T06:35:33.363Z,91664.53
2022-10-01T06:38:03.209Z,91666.00
2022-10-01T06:40:31.036Z,91670.84
2022-10-01T06:43:00.595Z,91674.97
2022-10-01T06:45:28.866Z,91681.97
2022-10-01T06:47:56.946Z,91674.97
2022-10-01T06:50:24.886Z,91670.09
2022-10-01T06:52:52.175Z,91670.25
2022-10-01T06:55:28.899Z,91677.88
2022-10-01T06:57:58.366Z,91680.66
2022-10-01T07:00:26.727Z,91679.19
2022-10-01T07:02:54.238Z,91686.09
2022-10-01T07:05:20.564Z,91681.97
2022-10-01T07:07:48.943Z,91684.03
2022-10-01T07:10:17.177Z,91695.16
2022-10-01T07:12:43.973Z,91695.75
2022-10-01T07:15:10.521Z,91693.13
2022-10-01T07:17:44.928Z,91691.66
2022-10-01T07:20:12.849Z,91691.66
2022-10-01T07:22:39.339Z,91685.97
2022-10-01T07:25:06.431Z,91686.09
2022-10-01T07:27:33.438Z,91691.66
2022-10-01T07:29:59.889Z,91693.13
2022-10-01T07:32:26.475Z,91684.75
2022-10-01T07:34:52.982Z,91697.38
2022-10-01T07:37:19.487Z,91690.47
2022-10-01T07:39:45.984Z,91691.91
2022-10-01T07:42:12.453Z,91693.38
2022-10-01T07:44:38.912Z,91682.97
2022-10-01T07:47:05.404Z,91684.41
2022-10-01T07:49:31.906Z,91672.56
2022-10-01T07:51:59.096Z,91666.28
2022-10-01T07:54:26.141Z,91666.97
2022-10-01T07:56:55.818Z,91673.88
2022-10-01T07:59:23.219Z,91675.94
2022-10-01T08:01:51.759Z,91668.31
2022-10-01T08:04:37.869Z,91655.72
2022-10-01T08:07:05.365Z,91660.72
2022-10-01T08:09:32.052Z,91658.63
2022-10-01T08:11:58.498Z,91650.53
2022-10-01T08:14:26.110Z,91654.91
2022-10-01T08:16:55.819Z,91649.47
2022-10-01T08:19:22.467Z,91651.78
2022-10-01T08:21:48.992Z,91651.91
2022-10-01T08:24:15.452Z,91661.13
2022-10-01T08:26:41.889Z,91654.94
2022-10-01T08:29:08.348Z,91655.06
2022-10-01T08:31:35.498Z,91660.03
2022-10-01T08:34:02.141Z,91656.66
2022-10-01T08:36:28.609Z,91658.09
2022-10-01T08:38:55.050Z,91660.28
2022-10-01T08:41:40.891Z,91659.56
2022-10-01T08:44:07.615Z,91646.38
2022-10-01T08:46:37.195Z,91654.72
2022-10-01T08:49:13.098Z,91657.50
2022-10-01T08:51:46.788Z,91658.81
2022-10-01T08:54:22.461Z,91667.19
2022-10-01T08:56:49.105Z,91664.25
2022-10-01T08:59:49.818Z,91669.69
2022-10-01T09:02:23.386Z,91675.88
2022-10-01T09:04:51.627Z,91677.22
2022-10-01T09:07:38.289Z,91675.03
2022-10-01T09:10:42.148Z,91673.56
2022-10-01T09:13:28.758Z,91669.34
2022-10-01T09:16:35.301Z,91670.66
2022-10-01T09:19:26.640Z,91669.81
2022-10-01T09:22:03.352Z,91680.22
2022-10-01T09:24:40.677Z,91676.00
2022-10-01T09:27:14.177Z,91667.50
2022-10-01T09:29:43.556Z,91661.19
2022-10-01T09:32:15.596Z,91659.75
2022-10-01T09:34:44.081Z,91653.31
2022-10-01T09:37:14.828Z,91653.31
2022-10-01T09:40:02.513Z,91654.66
2022-10-01T09:42:30.099Z,91653.19
2022-10-01T09:44:57.857Z,91647.63
2022-10-01T09:47:25.774Z,91646.19
2022-10-01T09:49:52.416Z,91640.63
2022-10-01T09:52:28.278Z,91643.41
2022-10-01T09:55:19.818Z,91650.28
2022-10-01T09:58:21.530Z,91645.44
2022-10-01T10:00:51.710Z,91640.63
2022-10-01T10:03:28.741Z,91637.81
2022-10-01T10:05:56.126Z,91647.63
2022-10-01T10:08:32.000Z,91646.19
2022-10-01T10:11:05.993Z,91646.19
2022-10-01T10:13:39.009Z,91640.63
2022-10-01T10:16:10.598Z,91629.47
2022-10-01T10:18:39.617Z,91640.63
2022-10-01T10:21:15.118Z,91641.31
2022-10-01T10:23:50.793Z,91648.97
2022-10-01T10:26:35.731Z,91632.38
2022-10-01T10:29:05.065Z,91629.94
2022-10-01T10:31:38.684Z,91645.91
2022-10-01T10:34:05.194Z,91641.78
2022-10-01T10:36:35.567Z,91648.84
2022-10-01T10:39:05.780Z,91641.94
2022-10-01T10:41:34.468Z,91639.88
2022-10-01T10:44:06.247Z,91646.19
2022-10-01T10:46:46.322Z,91651.88
2022-10-01T10:49:29.574Z,91657.44
2022-10-01T10:51:58.408Z,91654.66
2022-10-01T10:54:32.405Z,91648.34
2022-10-01T10:57:03.686Z,91647.63
2022-10-01T10:59:32.491Z,91644.84
2022-10-01T11:02:17.069Z,91642.91
2022-10-01T11:04:45.924Z,91645.72
2022-10-01T11:07:19.573Z,91643.75
2022-10-01T11:10:10.746Z,91646.81
2022-10-01T11:13:06.656Z,91651.06
2022-10-01T11:15:48.504Z,91645.50
2022-10-01T11:18:38.578Z,91638.44
2022-10-01T11:21:30.194Z,91637.00
2022-10-01T11:24:17.535Z,91635.53
2022-10-01T11:26:58.777Z,91627.19
2022-10-01T11:29:36.788Z,91641.09
2022-10-01T11:32:34.035Z,91645.22
2022-10-01T11:35:33.078Z,91646.53
2022-10-01T11:38:28.577Z,91654.91
2022-10-01T11:41:03.356Z,91654.91
2022-10-01T11:43:49.578Z,91670.16
2022-10-01T11:46:21.312Z,91675.72
2022-10-01T11:48:57.325Z,91685.41
2022-10-01T11:51:32.181Z,91674.25
2022-10-01T11:54:03.834Z,91667.97
2022-10-01T11:56:58.494Z,91674.25
2022-10-01T11:59:39.922Z,91665.91
2022-10-01T12:02:35.604Z,91674.25
2022-10-01T12:05:09.727Z,91663.13
2022-10-01T12:08:11.681Z,91656.84
2022-10-01T12:11:01.162Z,91651.97
2022-10-01T12:13:36.089Z,91647.16
2022-10-01T12:16:13.607Z,91657.56
2022-10-01T12:18:52.076Z,91651.97
2022-10-01T12:21:34.856Z,91649.19
2022-10-01T12:24:11.232Z,91632.63
2022-10-01T12:27:16.899Z,91628.78
2022-10-01T12:29:58.851Z,91633.28
2022-10-01T12:32:48.258Z,91619.56
2022-10-01T12:35:52.019Z,91618.38
2022-10-01T12:38:27.529Z,91626.97
2022-10-01T12:41:20.217Z,91621.53
2022-10-01T12:44:05.552Z,91613.31
2022-10-01T12:47:08.461Z,91613.56
2022-10-01T12:49:47.884Z,91613.56
2022-10-01T12:52:33.844Z,91621.56
2022-10-01T12:55:16.216Z,91619.59
2022-10-01T12:58:12.513Z,91621.81
2022-10-01T13:00:48.247Z,91628.09
2022-10-01T13:03:23.868Z,91634.28
2022-10-01T13:06:13.801Z,91631.97
2022-10-01T13:09:12.666Z,91651.34
2022-10-01T13:12:03.944Z,91624.69
2022-10-01T13:14:33.512Z,91632.94
2022-10-01T13:17:07.757Z,91628.56
2022-10-01T13:19:39.256Z,91631.22
2022-10-01T13:22:08.885Z,91643.69
2022-10-01T13:24:48.310Z,91652.03
2022-10-01T13:27:33.554Z,91644.28
2022-10-01T13:30:18.548Z,91638.00
2022-10-01T13:32:57.851Z,91635.09
2022-10-01T13:35:55.373Z,91634.22
2022-10-01T13:38:40.638Z,91641.84
2022-10-01T13:41:19.020Z,91638.38
2022-10-01T13:43:59.150Z,91634.84
2022-10-01T13:46:31.122Z,91633.41
2022-10-01T13:49:17.696Z,91644.53
2022-10-01T13:51:46.086Z,91641.03
2022-10-01T13:54:28.415Z,91647.91
2022-10-01T13:56:55.008Z,91649.72
2022-10-01T13:59:35.739Z,91652.50
2022-10-01T14:02:03.214Z,91672.13
2022-10-01T14:04:34.478Z,91658.34
2022-10-01T14:07:27.877Z,91666.81
2022-10-01T14:10:00.722Z,91668.25
2022-10-01T14:12:52.066Z,91669.00
2022-10-01T14:15:44.206Z,91676.63
2022-10-01T14:18:21.412Z,91691.97
2022-10-01T14:20:57.093Z,91681.56
2022-10-01T14:23:55.960Z,91697.56
2022-10-01T14:26:39.704Z,91690.28
2022-10-01T14:29:25.061Z,91697.06
2022-10-01T14:32:21.025Z,91694.28
2022-10-01T14:35:04.747Z,91692.94
2022-10-01T14:37:31.361Z,91690.28
2022-10-01T14:40:18.693Z,91697.31
2022-10-01T14:42:58.945Z,91693.19
2022-10-01T14:45:25.782Z,91686.88
2022-10-01T14:48:06.408Z,91697.44
2022-10-01T14:50:35.237Z,91691.16
2022-10-01T14:53:01.704Z,91694.66
2022-10-01T14:55:29.439Z,91691.88
2022-10-01T14:57:57.555Z,91696.09
2022-10-01T15:00:28.200Z,91694.75
2022-10-01T15:03:15.604Z,91696.09
2022-10-01T15:05:43.047Z,91703.84
2022-10-01T15:08:23.338Z,91701.81
2022-10-01T15:11:01.339Z,91706.03
2022-10-01T15:13:33.788Z,91706.03
2022-10-01T15:16:00.612Z,91715.13
2022-10-01T15:18:27.409Z,91710.28
2022-10-01T15:21:00.109Z,91718.66
2022-10-01T15:23:29.468Z,91724.22
2022-10-01T15:25:59.033Z,91723.47
2022-10-01T15:28:31.771Z,91716.47
2022-10-01T15:31:00.936Z,91715.72
2022-10-01T15:33:30.274Z,91725.41
2022-10-01T15:35:59.272Z,91730.97
2022-10-01T15:38:26.967Z,91725.41
2022-10-01T15:41:05.023Z,91736.53
2022-10-01T15:43:42.113Z,91728.19
2022-10-01T15:46:15.383Z,91736.53
2022-10-01T15:48:42.062Z,91738.00
2022-10-01T15:51:19.130Z,91738.00
2022-10-01T15:53:45.923Z,91738.00
2022-10-01T15:56:16.558Z,91732.44
2022-10-01T15:58:49.525Z,91738.00
2022-10-01T16:01:30.321Z,91744.31
2022-10-01T16:04:07.997Z,91738.75
2022-10-01T16:06:39.378Z,91742.25
2022-10-01T16:09:15.587Z,91761.03
2022-10-01T16:12:06.355Z,91748.41
2022-10-01T16:14:43.831Z,91749.16
2022-10-01T16:17:19.729Z,91759.56
2022-10-01T16:19:52.230Z,91775.53
2022-10-01T16:22:24.521Z,91765.88
2022-10-01T16:24:52.244Z,91771.44
2022-10-01T16:27:44.175Z,91781.09
2022-10-01T16:30:21.264Z,91793.72
2022-10-01T16:32:49.186Z,91796.63
2022-10-01T16:35:21.604Z,91810.69
2022-10-01T16:37:50.113Z,91816.38
2022-10-01T16:40:22.180Z,91816.50
2022-10-01T16:42:52.025Z,91819.41
2022-10-01T16:45:27.728Z,91821.59
2022-10-01T16:47:56.724Z,91830.09
2022-10-01T16:50:23.894Z,91831.56
2022-10-01T16:52:55.445Z,91828.19
2022-10-01T16:55:29.781Z,91840.78
2022-10-01T16:57:56.383Z,91833.16
2022-10-01T17:00:25.862Z,91829.75
2022-10-01T17:02:54.004Z,91838.13
2022-10-01T17:05:31.228Z,91827.72
2022-10-01T17:08:00.871Z,91839.59
2022-10-01T17:10:30.967Z,91863.31
2022-10-01T17:12:59.540Z,91868.16
2022-10-01T17:15:28.050Z,91866.13
2022-10-01T17:17:56.556Z,91868.91
2022-10-01T17:20:25.472Z,91868.91
2022-10-01T17:22:52.186Z,91873.72
2022-10-01T17:25:21.029Z,91871.69
2022-10-01T17:27:47.624Z,91871.56
2022-10-01T17:30:15.015Z,91875.81
2022-10-01T17:32:43.259Z,91888.25
2022-10-01T17:35:12.052Z,91897.97
2022-10-01T17:37:39.342Z,91902.06
2022-10-01T17:40:07.082Z,91898.56
2022-10-01T17:42:35.484Z,91900.63
2022-10-01T17:45:04.036Z,91904.72
2022-10-01T17:47:30.581Z,91889.34
2022-10-01T17:49:57.032Z,91892.13
2022-10-01T17:52:23.494Z,91872.47
2022-10-01T17:54:49.981Z,91871.19
2022-10-01T17:57:17.256Z,91867.06
2022-10-01T17:59:43.830Z,91861.47
2022-10-01T18:02:36.633Z,91868.38
2022-10-01T18:04:59.106Z,91867.66
2022-10-01T18:07:27.074Z,91880.97
2022-10-01T18:09:53.908Z,91894.78
2022-10-01T18:12:20.717Z,91904.59
2022-10-01T18:14:47.355Z,91897.69
2022-10-01T18:17:13.832Z,91897.69
2022-10-01T18:19:53.487Z,91910.19
2022-10-01T18:22:20.833Z,91912.97
2022-10-01T18:24:47.617Z,91911.47
2022-10-01T18:27:14.215Z,91911.47
2022-10-01T18:29:40.758Z,91912.97
2022-10-01T18:32:31.486Z,91906.38
2022-10-01T18:35:02.592Z,91923.81
2022-10-01T18:37:39.057Z,91929.41
2022-10-01T18:40:20.392Z,91944.06
2022-10-01T18:43:05.682Z,91947.56
2022-10-01T18:46:00.556Z,91946.25
2022-10-01T18:48:45.782Z,91950.47
2022-10-01T18:51:36.216Z,91949.03
2022-10-01T18:54:21.692Z,91954.59
2022-10-01T18:56:59.661Z,91961.63
2022-10-01T18:59:38.126Z,91972.78
2022-10-01T19:02:39.232Z,91981.13
2022-10-01T19:05:33.549Z,91988.03
2022-10-01T19:08:23.494Z,91988.75
2022-10-01T19:11:15.753Z,91993.59
2022-10-01T19:13:54.446Z,92004.00
2022-10-01T19:16:38.944Z,92015.91
2022-10-01T19:19:33.569Z,92007.53
2022-10-01T19:22:14.710Z,91992.13
2022-10-01T19:24:47.171Z,92014.41
2022-10-01T19:27:39.064Z,92018.69
2022-10-01T19:30:10.625Z,92027.03
2022-10-01T19:32:50.629Z,92014.41
2022-10-01T19:35:22.748Z,92008.84
2022-10-01T19:37:54.892Z,92024.09
2022-10-01T19:40:27.818Z,92024.09
2022-10-01T19:43:19.684Z,92053.41
2022-10-01T19:46:12.975Z,92038.78
2022-10-01T19:48:58.053Z,92029.09
2022-10-01T19:51:34.789Z,92004.59
2022-10-01T19:54:02.364Z,92013.69
2022-10-01T19:56:31.630Z,92018.53
2022-10-01T19:59:26.384Z,92013.69
2022-10-01T20:02:03.568Z,92016.50
2022-10-01T20:04:44.416Z,92021.31
2022-10-01T20:07:14.176Z,92045.66
2022-10-01T20:09:44.123Z,92060.19
2022-10-01T20:12:20.618Z,92064.41
2022-10-01T20:15:08.916Z,92067.19
2022-10-01T20:17:48.609Z,92072.78
2022-10-01T20:20:27.306Z,92079.09
2022-10-01T20:23:39.165Z,92072.78
2022-10-01T20:26:31.200Z,92077.03
2022-10-01T20:29:06.925Z,92088.78
2022-10-01T20:31:52.485Z,92100.63
2022-10-01T20:34:27.979Z,92095.06
2022-10-01T20:37:08.148Z,92076.91
2022-10-01T20:39:41.410Z,92060.19
2022-10-01T20:42:17.095Z,92055.34
2022-10-01T20:44:43.902Z,92046.25
2022-10-01T20:47:31.287Z,92031.00
2022-10-01T20:50:09.323Z,92037.91
2022-10-01T20:53:04.522Z,92050.47
2022-10-01T20:55:47.546Z,92052.56
2022-10-01T20:58:27.793Z,92076.91
2022-10-01T21:01:07.953Z,92088.03
2022-10-01T21:03:40.193Z,92105.50
2022-10-01T21:06:15.589Z,92111.78
2022-10-01T21:09:19.073Z,92124.41
2022-10-01T21:12:02.200Z,92132.75
2022-10-01T21:14:34.642Z,92129.97
2022-10-01T21:17:05.192Z,92139.63
2022-10-01T21:19:37.440Z,92138.91
2022-10-01T21:22:08.662Z,92150.06
2022-10-01T21:24:50.244Z,92147.28
2022-10-01T21:27:46.887Z,92160.47
2022-10-01T21:30:15.401Z,92172.91
2022-10-01T21:32:50.683Z,92175.69
2022-10-01T21:35:51.765Z,92153.41
2022-10-01T21:38:58.824Z,92150.06
2022-10-01T21:41:39.773Z,92161.75
2022-10-01T21:44:42.086Z,92160.47
2022-10-01T21:47:20.657Z,92170.88
2022-10-01T21:50:12.166Z,92178.47
2022-10-01T21:52:54.239Z,92185.38
2022-10-01T21:55:37.282Z,92185.38
2022-10-01T21:58:22.985Z,92171.47
2022-10-01T22:01:19.404Z,92156.06
2022-10-01T22:03:57.412Z,92162.34
2022-10-01T22:06:36.305Z,92184.66
2022-10-01T22:09:19.169Z,92190.97
2022-10-01T22:11:53.886Z,92197.97
2022-10-01T22:14:21.900Z,92206.34
2022-10-01T22:17:03.690Z,92197.84
2022-10-01T22:19:35.676Z,92216.03
2022-10-01T22:22:08.878Z,92228.50
2022-10-01T22:24:59.142Z,92246.66
2022-10-01T22:27:50.698Z,92225.84
2022-10-01T22:30:20.175Z,92209.13
2022-10-01T22:32:55.325Z,92199.47
2022-10-01T22:35:27.138Z,92214.69
2022-10-01T22:38:02.779Z,92212.50
2022-10-01T22:40:35.935Z,92218.81
2022-10-01T22:43:09.301Z,92224.53
2022-10-01T22:45:41.943Z,92236.97
2022-10-01T22:48:13.645Z,92241.09
2022-10-01T22:51:04.889Z,92234.94
2022-10-01T22:53:47.319Z,92246.66
2022-10-01T22:56:20.208Z,92257.81
2022-10-01T22:58:55.785Z,92259.25
2022-10-01T23:01:40.837Z,92263.38
2022-10-01T23:04:28.322Z,92262.63
2022-10-01T23:07:13.567Z,92274.53
2022-10-01T23:09:58.689Z,92274.53
2022-10-01T23:12:40.341Z,92290.50
2022-10-01T23:15:25.771Z,92291.25
2022-10-01T23:18:02.321Z,92278.63
2022-10-01T23:20:33.217Z,92279.34
2022-10-01T23:23:18.062Z,92273.78
2022-10-01T23:25:53.671Z,92278.63
2022-10-01T23:28:27.869Z,92285.50
2022-10-01T23:31:04.348Z,92288.31
2022-10-01T23:33:43.006Z,92294.63
2022-10-01T23:36:30.869Z,92300.94
2022-10-01T23:39:21.944Z,92287.56
2022-10-01T23:41:54.978Z,92293.88
2022-10-01T23:44:39.873Z,92300.19
2022-10-01T23:47:12.508Z,92311.31
2022-10-01T23:49:44.440Z,92321.72
2022-10-01T23:52:10.956Z,92327.28
2022-10-01T23:55:52.616Z,92302.22
2022-10-01T23:58:22.206Z,92321.00
